createdAt,value
2022-08-25T19:21:44.833Z,7.25
2022-08-25T19:24:19.130Z,6.57
2022-08-25T19:26:54.148Z,6.63
2022-08-25T19:29:25.308Z,6.47
2022-08-25T19:31:55.378Z,9.32
2022-08-25T19:34:31.704Z,10.98
2022-08-25T19:37:05.054Z,13.57
2022-08-25T19:39:39.212Z,15.05
2022-08-25T19:42:35.338Z,13.38
2022-08-25T19:45:02.654Z,14.13
2022-08-25T19:47:33.479Z,8.95
2022-08-25T19:50:03.225Z,13.88
2022-08-25T19:52:33.375Z,15.40
2022-08-25T19:55:04.295Z,6.25
2022-08-25T19:57:42.676Z,7.85
2022-08-25T20:00:23.945Z,7.63
2022-08-25T20:02:54.545Z,22.00
2022-08-25T20:05:25.528Z,12.18
2022-08-25T20:07:57.594Z,24.63
2022-08-25T20:10:36.649Z,12.85
2022-08-25T20:13:12.030Z,10.35
2022-08-25T20:15:41.773Z,7.18
2022-08-25T20:18:11.616Z,7.00
2022-08-25T20:20:41.274Z,11.43
2022-08-25T20:23:29.681Z,7.32
2022-08-25T20:25:59.435Z,7.40
2022-08-25T20:28:32.918Z,6.22
2022-08-25T20:31:02.739Z,7.30
2022-08-25T20:33:32.490Z,6.75
2022-08-25T20:36:03.523Z,6.97
2022-08-25T20:38:42.469Z,6.45
2022-08-25T20:41:16.232Z,6.88
2022-08-25T20:43:46.337Z,6.55
2022-08-25T20:46:16.279Z,6.32
2022-08-25T20:48:47.171Z,5.82
2022-08-25T20:51:18.842Z,6.55
2022-08-25T20:53:51.554Z,7.40
2022-08-25T20:56:25.903Z,7.05
2022-08-25T20:58:58.550Z,6.60
2022-08-25T21:01:41.046Z,6.35
2022-08-25T21:04:14.897Z,6.40
2022-08-25T21:06:46.439Z,6.30
2022-08-25T21:09:25.742Z,6.15
2022-08-25T21:12:00.532Z,6.15
2022-08-25T21:14:39.867Z,5.88
2022-08-25T21:17:20.369Z,6.25
2022-08-25T21:19:50.771Z,6.22
2022-08-25T21:22:20.643Z,6.10
2022-08-25T21:24:52.873Z,6.30
2022-08-25T21:27:23.995Z,6.37
2022-08-25T21:29:55.517Z,6.53
2022-08-25T21:32:26.978Z,6.32
2022-08-25T21:34:56.927Z,7.10
2022-08-25T21:37:28.628Z,6.88
2022-08-25T21:39:58.842Z,7.28
2022-08-25T21:42:30.000Z,6.97
2022-08-25T21:44:59.513Z,7.07
2022-08-25T21:47:28.993Z,6.43
2022-08-25T21:49:58.511Z,7.28
2022-08-25T21:52:29.284Z,7.20
2022-08-25T21:54:59.985Z,7.15
2022-08-25T21:57:30.516Z,7.50
2022-08-25T21:59:59.785Z,8.00
2022-08-25T22:02:29.676Z,8.07
2022-08-25T22:04:59.490Z,7.75
2022-08-25T22:07:28.880Z,7.35
2022-08-25T22:10:04.659Z,8.15
2022-08-25T22:12:34.152Z,7.72
2022-08-25T22:15:06.948Z,9.18
2022-08-25T22:17:40.063Z,8.20
2022-08-25T22:20:11.517Z,7.90
2022-08-25T22:22:41.295Z,7.93
2022-08-25T22:25:11.486Z,8.07
2022-08-25T22:27:41.116Z,7.60
2022-08-25T22:30:12.019Z,9.30
2022-08-25T22:32:42.177Z,7.22
2022-08-25T22:35:15.693Z,7.40
2022-08-25T22:37:48.815Z,7.97
2022-08-25T22:40:19.355Z,9.52
2022-08-25T22:42:48.800Z,7.50
2022-08-25T22:45:18.892Z,6.78
2022-08-25T22:47:49.912Z,6.60
2022-08-25T22:50:19.894Z,11.63
2022-08-25T22:52:49.666Z,9.30
2022-08-25T22:55:19.406Z,24.25
2022-08-25T22:57:54.838Z,8.77
2022-08-25T23:00:25.160Z,10.33
2022-08-25T23:02:55.239Z,8.43
2022-08-25T23:05:25.354Z,15.55
2022-08-25T23:07:54.421Z,7.15
2022-08-25T23:10:24.899Z,13.07
2022-08-25T23:12:56.472Z,8.95
2022-08-25T23:15:27.497Z,9.25
2022-08-25T23:17:56.994Z,32.20
2022-08-25T23:20:45.893Z,18.27
2022-08-25T23:23:15.335Z,7.63
2022-08-25T23:25:44.728Z,7.55
2022-08-25T23:28:14.725Z,21.45
2022-08-25T23:30:44.997Z,10.18
2022-08-25T23:33:27.923Z,14.93
2022-08-25T23:36:02.751Z,30.88
2022-08-25T23:38:32.948Z,28.02
2022-08-25T23:41:08.113Z,34.88
2022-08-25T23:43:40.038Z,23.92
2022-08-25T23:46:11.426Z,28.13
2022-08-25T23:48:42.011Z,21.73
2022-08-25T23:51:12.279Z,28.80
2022-08-25T23:53:41.659Z,23.73
2022-08-25T23:56:11.046Z,22.97
2022-08-25T23:58:40.476Z,30.98
